createdAt,value
2022-10-29T00:01:41.842Z,13.90
2022-10-29T00:05:43.525Z,13.90
2022-10-29T00:09:45.156Z,13.90
2022-10-29T00:13:48.316Z,13.90
2022-10-29T00:17:49.978Z,13.90
2022-10-29T00:21:51.725Z,13.90
2022-10-29T00:25:59.702Z,14.00
2022-10-29T00:30:01.393Z,14.00
2022-10-29T00:34:03.058Z,14.00
2022-10-29T00:38:04.691Z,14.00
2022-10-29T00:42:06.358Z,14.10
2022-10-29T00:46:11.674Z,14.10
2022-10-29T00:50:14.509Z,14.10
2022-10-29T00:54:16.960Z,14.10
2022-10-29T00:58:19.871Z,14.10
2022-10-29T01:02:23.610Z,14.00
2022-10-29T01:06:26.278Z,14.00
2022-10-29T01:10:45.782Z,14.00
2022-10-29T01:14:50.290Z,14.00
2022-10-29T01:19:20.538Z,13.90
2022-10-29T01:23:34.089Z,13.90
2022-10-29T01:27:54.265Z,13.80
2022-10-29T01:32:14.779Z,13.70
2022-10-29T01:36:19.575Z,13.70
2022-10-29T01:40:39.708Z,13.70
2022-10-29T01:44:48.831Z,13.60
2022-10-29T01:48:55.019Z,13.50
2022-10-29T01:52:57.718Z,13.50
2022-10-29T01:57:01.002Z,13.50
2022-10-29T02:01:21.483Z,13.40
2022-10-29T02:05:42.300Z,13.30
2022-10-29T02:09:54.410Z,13.30
2022-10-29T02:14:11.784Z,13.30
2022-10-29T02:18:13.953Z,13.20
2022-10-29T02:22:15.750Z,13.20
2022-10-29T02:26:17.660Z,13.20
2022-10-29T02:30:19.405Z,13.20
2022-10-29T02:34:21.045Z,13.20
2022-10-29T02:38:22.699Z,13.00
2022-10-29T02:42:24.390Z,13.00
2022-10-29T02:46:26.072Z,12.90
2022-10-29T02:50:27.850Z,12.90
2022-10-29T02:54:29.567Z,12.90
2022-10-29T02:58:31.601Z,12.80
2022-10-29T03:02:33.244Z,12.80
2022-10-29T03:06:34.946Z,12.70
2022-10-29T03:10:36.574Z,12.70
2022-10-29T03:14:38.217Z,12.60
2022-10-29T03:18:39.801Z,12.60
2022-10-29T03:22:41.416Z,12.60
2022-10-29T03:26:42.988Z,12.60
2022-10-29T03:30:44.573Z,12.70
2022-10-29T03:34:46.177Z,12.60
2022-10-29T03:38:47.839Z,12.60
2022-10-29T03:42:49.432Z,12.60
2022-10-29T03:46:51.084Z,12.60
2022-10-29T03:50:57.347Z,12.60
2022-10-29T03:54:58.943Z,12.60
2022-10-29T03:59:00.617Z,12.60
2022-10-29T04:03:02.331Z,12.60
2022-10-29T04:07:04.069Z,12.60
2022-10-29T04:11:07.926Z,12.60
2022-10-29T04:15:10.161Z,12.60
2022-10-29T04:19:11.798Z,12.60
2022-10-29T04:27:31.400Z,12.60
2022-10-29T04:31:57.014Z,12.60
2022-10-29T04:35:58.933Z,12.60
2022-10-29T04:40:00.642Z,12.60
2022-10-29T04:44:02.456Z,12.60
2022-10-29T04:48:05.605Z,12.70
2022-10-29T04:52:07.200Z,12.70
2022-10-29T04:56:08.833Z,12.80
2022-10-29T05:00:16.226Z,12.90
2022-10-29T05:04:20.378Z,12.90
2022-10-29T05:08:21.994Z,13.10
2022-10-29T05:12:23.606Z,13.10
2022-10-29T05:16:25.267Z,13.20
2022-10-29T05:20:27.566Z,13.20
2022-10-29T05:24:29.196Z,13.10
2022-10-29T05:28:30.838Z,13.10
2022-10-29T05:32:32.526Z,13.10
2022-10-29T05:36:34.195Z,13.00
2022-10-29T05:40:35.940Z,13.00
2022-10-29T05:44:37.687Z,13.00
2022-10-29T05:48:39.274Z,13.00
2022-10-29T05:52:41.023Z,13.00
2022-10-29T05:56:42.605Z,13.00
2022-10-29T06:00:45.124Z,13.00
2022-10-29T06:04:46.742Z,13.00
2022-10-29T06:08:48.361Z,13.10
2022-10-29T06:12:50.342Z,13.00
2022-10-29T06:16:51.973Z,13.10
2022-10-29T06:20:54.785Z,13.10
2022-10-29T06:24:56.410Z,13.10
2022-10-29T06:28:58.097Z,13.20
2022-10-29T06:33:00.366Z,13.30
2022-10-29T06:37:02.022Z,13.40
2022-10-29T06:41:03.699Z,13.50
2022-10-29T06:45:05.888Z,13.60
2022-10-29T06:49:07.557Z,13.70
2022-10-29T06:53:13.058Z,13.80
2022-10-29T06:57:14.722Z,13.90
2022-10-29T07:01:16.387Z,14.00
2022-10-29T07:05:18.150Z,14.10
2022-10-29T07:09:19.771Z,14.20
2022-10-29T07:13:21.459Z,14.30
2022-10-29T07:17:23.168Z,14.40
2022-10-29T07:21:24.796Z,14.50
2022-10-29T07:25:27.027Z,14.60
2022-10-29T07:29:28.706Z,14.70
2022-10-29T07:33:30.941Z,14.80
2022-10-29T07:37:32.589Z,14.90
2022-10-29T07:41:34.246Z,15.00
2022-10-29T07:45:35.970Z,15.30
2022-10-29T07:49:37.709Z,15.70
2022-10-29T07:53:39.340Z,15.90
2022-10-29T07:57:40.963Z,16.00
2022-10-29T08:01:42.759Z,16.10
2022-10-29T08:05:48.927Z,16.30
2022-10-29T08:09:53.853Z,16.50
2022-10-29T08:13:55.515Z,16.60
2022-10-29T08:17:57.589Z,16.70
2022-10-29T08:21:59.266Z,16.70
2022-10-29T08:26:00.872Z,16.80
2022-10-29T08:30:03.065Z,16.90
2022-10-29T08:34:09.993Z,17.10
2022-10-29T08:38:12.637Z,17.20
2022-10-29T08:42:20.014Z,17.30
2022-10-29T08:46:41.302Z,17.30
2022-10-29T08:50:47.276Z,17.40
2022-10-29T08:54:58.921Z,17.50
2022-10-29T08:59:06.595Z,17.50
2022-10-29T09:03:11.729Z,17.60
2022-10-29T09:07:29.004Z,17.60
2022-10-29T09:11:51.633Z,17.90
2022-10-29T09:15:57.998Z,18.10
2022-10-29T09:20:23.029Z,18.40
2022-10-29T09:24:37.620Z,18.50
2022-10-29T09:28:54.361Z,18.70
2022-10-29T09:33:12.017Z,18.90
2022-10-29T09:37:21.291Z,19.30
2022-10-29T09:41:31.811Z,19.70
2022-10-29T09:45:48.726Z,20.10
2022-10-29T09:50:11.794Z,20.30
2022-10-29T09:54:13.477Z,20.20
2022-10-29T09:58:21.782Z,20.10
2022-10-29T10:02:36.162Z,20.20
2022-10-29T10:07:02.323Z,20.10
2022-10-29T10:11:06.727Z,20.10
2022-10-29T10:15:35.532Z,19.90
2022-10-29T10:19:43.959Z,20.00
2022-10-29T10:23:48.296Z,19.80
2022-10-29T10:27:49.940Z,19.70
2022-10-29T10:31:57.347Z,19.80
2022-10-29T10:36:06.040Z,19.90
2022-10-29T10:40:19.634Z,20.00
2022-10-29T10:44:23.028Z,20.10
2022-10-29T10:48:33.319Z,20.00
2022-10-29T10:52:35.453Z,20.00
2022-10-29T10:57:02.173Z,20.10
2022-10-29T11:01:13.913Z,20.40
2022-10-29T11:05:26.074Z,20.50
2022-10-29T11:09:32.981Z,20.50
2022-10-29T11:13:34.692Z,20.50
2022-10-29T11:17:50.040Z,20.30
2022-10-29T11:22:05.325Z,20.30
2022-10-29T11:26:15.872Z,20.30
2022-10-29T11:30:19.093Z,20.30
2022-10-29T11:34:28.656Z,20.30
2022-10-29T11:38:46.416Z,20.30
2022-10-29T11:42:48.226Z,20.40
2022-10-29T11:47:16.853Z,20.50
2022-10-29T11:51:26.972Z,20.50
2022-10-29T11:55:59.579Z,20.60
2022-10-29T12:00:19.981Z,20.70
2022-10-29T12:04:27.277Z,20.80
2022-10-29T12:08:51.726Z,20.90
2022-10-29T12:13:51.957Z,21.00
2022-10-29T12:18:18.113Z,21.10
2022-10-29T12:22:37.056Z,21.10
2022-10-29T12:26:49.660Z,21.10
2022-10-29T12:30:57.150Z,21.10
2022-10-29T12:35:06.440Z,21.20
2022-10-29T12:39:18.745Z,21.00
2022-10-29T12:43:26.387Z,20.90
2022-10-29T12:48:03.561Z,20.80
2022-10-29T12:52:20.261Z,21.00
2022-10-29T12:56:22.690Z,20.80
2022-10-29T13:00:24.254Z,20.90
2022-10-29T13:04:27.249Z,20.80
2022-10-29T13:08:34.330Z,21.00
2022-10-29T13:13:05.314Z,21.50
2022-10-29T13:17:28.553Z,21.70
2022-10-29T13:21:57.034Z,21.80
2022-10-29T13:25:59.736Z,21.70
2022-10-29T13:30:26.742Z,21.60
2022-10-29T13:34:53.822Z,21.60
2022-10-29T13:39:05.775Z,21.40
2022-10-29T13:43:16.696Z,21.40
2022-10-29T13:47:22.088Z,21.30
2022-10-29T13:51:31.168Z,21.40
2022-10-29T13:55:34.033Z,21.40
2022-10-29T13:59:38.851Z,21.60
2022-10-29T14:04:03.615Z,21.90
2022-10-29T14:08:28.226Z,22.20
2022-10-29T14:12:32.059Z,22.10
2022-10-29T14:16:33.817Z,22.00
2022-10-29T14:20:35.465Z,21.80
2022-10-29T14:24:38.406Z,21.50
2022-10-29T14:28:40.045Z,21.40
2022-10-29T14:32:41.974Z,21.30
2022-10-29T14:36:50.134Z,21.10
2022-10-29T14:40:51.772Z,20.90
2022-10-29T14:44:56.827Z,20.80
2022-10-29T14:49:00.873Z,20.80
2022-10-29T14:53:06.365Z,20.70
2022-10-29T14:57:14.255Z,20.60
2022-10-29T15:01:20.311Z,20.70
2022-10-29T15:05:25.551Z,20.60
2022-10-29T15:09:27.979Z,20.70
2022-10-29T15:13:29.697Z,20.50
2022-10-29T15:17:32.389Z,20.40
2022-10-29T15:21:34.070Z,20.30
2022-10-29T15:25:39.670Z,20.10
2022-10-29T15:29:45.213Z,19.90
2022-10-29T15:33:49.962Z,19.90
2022-10-29T15:37:51.660Z,19.80
2022-10-29T15:41:56.428Z,19.70
2022-10-29T15:45:58.414Z,19.60
2022-10-29T15:50:00.107Z,19.50
2022-10-29T15:54:02.809Z,19.40
2022-10-29T15:58:19.398Z,19.30
2022-10-29T16:02:21.379Z,19.10
2022-10-29T16:06:23.278Z,19.00
2022-10-29T16:10:24.893Z,18.90
2022-10-29T16:14:26.504Z,18.90
2022-10-29T16:18:28.327Z,18.70
2022-10-29T16:22:30.332Z,18.60
2022-10-29T16:26:32.000Z,18.50
2022-10-29T16:30:34.358Z,18.40
2022-10-29T16:34:36.006Z,18.40
2022-10-29T16:38:37.586Z,18.40
2022-10-29T16:42:39.879Z,18.30
2022-10-29T16:46:41.507Z,18.30
2022-10-29T16:50:43.140Z,18.40
2022-10-29T16:54:44.841Z,18.40
2022-10-29T16:58:46.555Z,18.30
2022-10-29T17:02:48.715Z,18.30
2022-10-29T17:06:50.328Z,18.30
2022-10-29T17:10:58.141Z,18.30
2022-10-29T17:14:59.754Z,18.30
2022-10-29T17:19:01.416Z,18.20
2022-10-29T17:23:03.096Z,18.20
2022-10-29T17:27:04.766Z,18.10
2022-10-29T17:31:07.729Z,18.20
2022-10-29T17:35:09.585Z,18.20
2022-10-29T17:39:11.617Z,18.10
2022-10-29T17:43:13.397Z,18.10
2022-10-29T17:47:15.864Z,18.10
2022-10-29T17:51:17.504Z,18.00
2022-10-29T17:55:19.821Z,17.90
2022-10-29T17:59:21.487Z,17.90
2022-10-29T18:03:26.630Z,17.80
2022-10-29T18:07:28.241Z,17.90
2022-10-29T18:11:30.523Z,17.80
2022-10-29T18:15:32.127Z,17.90
2022-10-29T18:19:33.722Z,17.80
2022-10-29T18:23:35.359Z,17.70
2022-10-29T18:27:37.141Z,17.60
2022-10-29T18:31:42.046Z,17.60
2022-10-29T18:35:43.653Z,17.50
2022-10-29T18:39:45.235Z,17.40
2022-10-29T18:43:47.303Z,17.40
2022-10-29T18:47:48.922Z,17.50
2022-10-29T18:51:50.535Z,17.70
2022-10-29T18:55:53.270Z,17.60
2022-10-29T18:59:54.899Z,17.60
2022-10-29T19:03:58.716Z,17.60
2022-10-29T19:08:00.437Z,17.60
2022-10-29T19:12:02.186Z,17.60
2022-10-29T19:16:06.334Z,17.70
2022-10-29T19:20:08.387Z,17.50
2022-10-29T19:24:14.479Z,17.50
2022-10-29T19:28:16.131Z,17.50
2022-10-29T19:32:17.721Z,17.50
2022-10-29T19:36:20.524Z,17.40
2022-10-29T19:40:22.150Z,17.30
2022-10-29T19:44:23.802Z,17.40
2022-10-29T19:48:25.486Z,17.50
2022-10-29T19:52:27.158Z,17.70
2022-10-29T19:56:28.797Z,18.00
2022-10-29T20:00:30.449Z,18.10
2022-10-29T20:04:32.133Z,18.10
2022-10-29T20:08:33.755Z,18.10
2022-10-29T20:12:35.401Z,18.10
2022-10-29T20:16:36.983Z,18.00
2022-10-29T20:20:38.616Z,18.00
2022-10-29T20:24:40.440Z,17.90
2022-10-29T20:28:42.239Z,18.00
2022-10-29T20:32:43.851Z,17.90
2022-10-29T20:36:46.636Z,17.70
2022-10-29T20:40:50.634Z,17.60
2022-10-29T20:44:52.412Z,17.50
2022-10-29T20:48:54.079Z,17.60
2022-10-29T20:52:55.739Z,17.60
2022-10-29T20:56:57.446Z,17.60
2022-10-29T21:01:10.491Z,17.70
2022-10-29T21:05:12.154Z,17.70
2022-10-29T21:09:13.800Z,17.60
2022-10-29T21:13:15.673Z,17.50
2022-10-29T21:17:17.276Z,17.60
2022-10-29T21:21:19.304Z,17.50
2022-10-29T21:25:20.986Z,17.40
2022-10-29T21:29:22.670Z,17.40
2022-10-29T21:33:24.336Z,17.30
2022-10-29T21:37:26.302Z,17.20
2022-10-29T21:41:28.010Z,17.20
2022-10-29T21:45:29.642Z,17.10
2022-10-29T21:49:31.289Z,17.10
2022-10-29T21:53:33.551Z,17.00
2022-10-29T21:57:35.218Z,17.00
2022-10-29T22:01:36.947Z,17.00
2022-10-29T22:05:38.601Z,16.90
2022-10-29T22:09:40.182Z,17.00
2022-10-29T22:13:41.917Z,17.00
2022-10-29T22:17:43.544Z,17.00
2022-10-29T22:21:46.155Z,17.00
2022-10-29T22:25:51.047Z,17.00
2022-10-29T22:29:54.460Z,17.00
2022-10-29T22:33:56.484Z,17.00
2022-10-29T22:42:04.652Z,17.00
2022-10-29T22:46:08.510Z,17.00
2022-10-29T22:50:10.492Z,17.20
2022-10-29T22:54:12.162Z,17.10
2022-10-29T22:58:13.786Z,17.00
2022-10-29T23:02:15.486Z,17.10
2022-10-29T23:06:19.680Z,17.20
2022-10-29T23:10:21.302Z,17.10
2022-10-29T23:14:22.935Z,17.00
2022-10-29T23:18:24.657Z,17.10
2022-10-29T23:22:27.628Z,17.10
2022-10-29T23:26:29.584Z,17.10
2022-10-29T23:30:31.193Z,17.20
2022-10-29T23:34:32.804Z,17.10
2022-10-29T23:38:35.013Z,17.10
2022-10-29T23:42:36.663Z,17.10
2022-10-29T23:46:38.251Z,17.00
2022-10-29T23:50:40.353Z,17.00
2022-10-29T23:54:41.971Z,17.00
2022-10-29T23:58:43.569Z,16.90
